createdAt,value
2023-01-03T00:00:30.998Z,957.56
2023-01-03T00:01:30.912Z,957.55
2023-01-03T00:02:31.007Z,957.55
2023-01-03T00:03:30.878Z,957.51
2023-01-03T00:04:30.935Z,957.55
2023-01-03T00:05:30.867Z,957.56
2023-01-03T00:06:30.878Z,957.57
2023-01-03T00:07:30.827Z,957.55
2023-01-03T00:08:30.826Z,957.62
2023-01-03T00:09:30.821Z,957.68
2023-01-03T00:10:30.812Z,957.73
2023-01-03T00:11:30.800Z,957.78
2023-01-03T00:12:31.527Z,957.80
2023-01-03T00:13:30.774Z,957.79
2023-01-03T00:14:30.761Z,957.76
2023-01-03T00:15:30.742Z,957.81
2023-01-03T00:16:30.803Z,957.82
2023-01-03T00:17:30.733Z,957.76
2023-01-03T00:18:30.709Z,957.79
2023-01-03T00:19:30.698Z,957.83
2023-01-03T00:20:30.690Z,957.86
2023-01-03T00:21:30.668Z,957.84
2023-01-03T00:22:30.678Z,957.89
2023-01-03T00:23:30.649Z,957.94
2023-01-03T00:24:30.645Z,957.91
2023-01-03T00:25:30.623Z,957.84
2023-01-03T00:26:30.616Z,957.88
2023-01-03T00:27:30.620Z,957.90
2023-01-03T00:28:30.592Z,957.93
2023-01-03T00:29:30.614Z,957.93
2023-01-03T00:30:32.169Z,957.92
2023-01-03T00:31:30.558Z,957.90
2023-01-03T00:32:30.593Z,957.90
2023-01-03T00:33:30.531Z,957.94
2023-01-03T00:34:30.540Z,957.95
2023-01-03T00:35:30.517Z,957.92
2023-01-03T00:36:30.518Z,957.91
2023-01-03T00:37:30.492Z,957.87
2023-01-03T00:38:30.501Z,957.98
2023-01-03T00:39:30.476Z,957.96
2023-01-03T00:40:30.475Z,957.93
2023-01-03T00:41:30.466Z,957.93
2023-01-03T00:42:30.456Z,957.96
2023-01-03T00:43:30.414Z,957.96
2023-01-03T00:44:30.443Z,958.01
2023-01-03T00:45:35.088Z,957.96
2023-01-03T00:46:31.417Z,958.00
2023-01-03T00:47:30.395Z,957.97
2023-01-03T00:48:30.362Z,958.01
2023-01-03T00:49:30.368Z,958.08
2023-01-03T00:50:30.350Z,958.06
2023-01-03T00:51:30.352Z,958.14
2023-01-03T00:52:30.324Z,958.15
2023-01-03T00:53:30.338Z,958.15
2023-01-03T00:54:30.300Z,958.20
2023-01-03T00:55:30.289Z,958.14
2023-01-03T00:56:30.278Z,958.17
2023-01-03T00:57:30.263Z,958.15
2023-01-03T00:58:30.257Z,958.20
2023-01-03T00:59:30.271Z,958.19
2023-01-03T01:00:30.240Z,958.21
2023-01-03T01:01:30.425Z,958.20
2023-01-03T01:02:30.513Z,958.20
2023-01-03T01:03:30.430Z,958.21
2023-01-03T01:04:30.207Z,958.25
2023-01-03T01:05:30.180Z,958.23
2023-01-03T01:06:30.186Z,958.22
2023-01-03T01:07:30.151Z,958.25
2023-01-03T01:08:30.160Z,958.23
2023-01-03T01:09:30.135Z,958.27
2023-01-03T01:10:30.118Z,958.35
2023-01-03T01:11:30.134Z,958.37
2023-01-03T01:12:30.102Z,958.36
2023-01-03T01:13:30.082Z,958.40
2023-01-03T01:14:30.085Z,958.46
2023-01-03T01:15:30.191Z,958.45
2023-01-03T01:16:30.138Z,958.46
2023-01-03T01:17:30.063Z,958.48
2023-01-03T01:18:30.031Z,958.47
2023-01-03T01:19:30.048Z,958.49
2023-01-03T01:20:30.008Z,958.47
2023-01-03T01:21:30.008Z,958.48
2023-01-03T01:22:29.989Z,958.49
2023-01-03T01:23:29.980Z,958.47
2023-01-03T01:24:29.982Z,958.50
2023-01-03T01:25:29.955Z,958.50
2023-01-03T01:26:29.964Z,958.56
2023-01-03T01:27:29.930Z,958.54
2023-01-03T01:28:29.918Z,958.52
2023-01-03T01:29:29.917Z,958.54
2023-01-03T01:30:29.933Z,958.55
2023-01-03T01:31:29.941Z,958.63
2023-01-03T01:32:29.918Z,958.62
2023-01-03T01:33:29.880Z,958.59
2023-01-03T01:34:29.856Z,958.63
2023-01-03T01:35:29.842Z,958.58
2023-01-03T01:36:29.866Z,958.66
2023-01-03T01:37:29.817Z,958.63
2023-01-03T01:38:29.804Z,958.61
2023-01-03T01:39:29.794Z,958.63
2023-01-03T01:40:29.789Z,958.63
2023-01-03T01:41:29.791Z,958.61
2023-01-03T01:42:31.009Z,958.63
2023-01-03T01:43:29.751Z,958.60
2023-01-03T01:44:29.766Z,958.59
2023-01-03T01:45:29.721Z,958.63
2023-01-03T01:46:29.783Z,958.64
2023-01-03T01:47:29.706Z,958.69
2023-01-03T01:48:29.697Z,958.73
2023-01-03T01:49:29.720Z,958.73
2023-01-03T01:50:29.669Z,958.70
2023-01-03T01:51:29.682Z,958.73
2023-01-03T01:52:29.647Z,958.72
2023-01-03T01:53:29.638Z,958.72
2023-01-03T01:54:29.652Z,958.69
2023-01-03T01:55:29.608Z,958.73
2023-01-03T01:56:29.605Z,958.72
2023-01-03T01:57:29.603Z,958.69
2023-01-03T01:58:29.647Z,958.66
2023-01-03T01:59:29.627Z,958.69
2023-01-03T02:00:29.594Z,958.67
2023-01-03T02:01:29.691Z,958.65
2023-01-03T02:02:29.808Z,958.67
2023-01-03T02:03:29.543Z,958.70
2023-01-03T02:04:29.510Z,958.69
2023-01-03T02:05:29.551Z,958.70
2023-01-03T02:06:29.485Z,958.68
2023-01-03T02:07:29.499Z,958.65
2023-01-03T02:08:29.492Z,958.75
2023-01-03T02:09:29.569Z,958.73
2023-01-03T02:10:29.456Z,958.72
2023-01-03T02:11:29.443Z,958.72
2023-01-03T02:12:29.440Z,958.73
2023-01-03T02:13:29.417Z,958.71
2023-01-03T02:14:29.423Z,958.72
2023-01-03T02:15:29.396Z,958.75
2023-01-03T02:16:29.507Z,958.80
2023-01-03T02:17:29.371Z,958.72
2023-01-03T02:18:29.373Z,958.79
2023-01-03T02:19:29.384Z,958.78
2023-01-03T02:20:29.352Z,958.79
2023-01-03T02:21:29.342Z,958.77
2023-01-03T02:22:29.315Z,958.77
2023-01-03T02:23:29.302Z,958.76
2023-01-03T02:24:29.286Z,958.78
2023-01-03T02:25:29.276Z,958.85
2023-01-03T02:26:29.278Z,958.82
2023-01-03T02:27:29.260Z,958.85
2023-01-03T02:28:29.303Z,958.84
2023-01-03T02:29:29.232Z,958.76
2023-01-03T02:30:29.219Z,958.86
2023-01-03T02:31:29.305Z,958.83
2023-01-03T02:32:29.196Z,958.86
2023-01-03T02:33:29.189Z,958.88
2023-01-03T02:34:29.183Z,958.89
2023-01-03T02:35:29.175Z,958.86
2023-01-03T02:36:29.168Z,958.88
2023-01-03T02:37:29.211Z,958.87
2023-01-03T02:38:29.140Z,958.88
2023-01-03T02:39:29.149Z,958.86
2023-01-03T02:40:29.107Z,958.91
2023-01-03T02:41:29.122Z,958.84
2023-01-03T02:42:29.108Z,958.92
2023-01-03T02:43:29.080Z,958.92
2023-01-03T02:44:29.059Z,958.94
2023-01-03T02:45:29.057Z,958.94
2023-01-03T02:46:29.145Z,958.94
2023-01-03T02:47:29.031Z,958.96
2023-01-03T02:48:29.030Z,958.94
2023-01-03T02:49:29.032Z,958.98
2023-01-03T02:50:29.007Z,958.95
2023-01-03T02:51:28.990Z,959.01
2023-01-03T02:52:28.973Z,958.92
2023-01-03T02:53:28.984Z,958.95
2023-01-03T02:54:28.978Z,958.93
2023-01-03T02:55:28.944Z,958.98
2023-01-03T02:56:28.948Z,958.99
2023-01-03T02:57:28.917Z,958.94
2023-01-03T02:58:28.904Z,959.05
2023-01-03T02:59:28.923Z,959.03
2023-01-03T03:00:28.890Z,958.99
2023-01-03T03:01:28.967Z,959.06
2023-01-03T03:02:29.144Z,959.10
2023-01-03T03:03:28.942Z,959.08
2023-01-03T03:04:28.853Z,959.09
2023-01-03T03:05:28.830Z,959.08
2023-01-03T03:06:28.837Z,959.07
2023-01-03T03:07:28.814Z,959.05
2023-01-03T03:08:28.835Z,959.07
2023-01-03T03:09:28.812Z,959.06
2023-01-03T03:10:28.805Z,959.06
2023-01-03T03:11:28.785Z,959.07
2023-01-03T03:12:28.754Z,959.07
2023-01-03T03:13:28.747Z,959.04
2023-01-03T03:14:28.725Z,959.03
2023-01-03T03:15:28.736Z,959.04
2023-01-03T03:16:28.741Z,958.99
2023-01-03T03:17:28.700Z,959.01
2023-01-03T03:18:28.681Z,958.98
2023-01-03T03:19:28.699Z,958.95
2023-01-03T03:20:28.676Z,958.99
2023-01-03T03:21:28.651Z,958.92
2023-01-03T03:22:28.652Z,958.92
2023-01-03T03:23:28.742Z,958.95
2023-01-03T03:24:28.633Z,958.98
2023-01-03T03:25:28.636Z,958.99
2023-01-03T03:26:28.596Z,958.96
2023-01-03T03:27:28.582Z,958.92
2023-01-03T03:28:28.579Z,958.91
2023-01-03T03:29:28.569Z,958.98
2023-01-03T03:30:28.563Z,958.93
2023-01-03T03:31:28.617Z,958.98
2023-01-03T03:32:28.529Z,958.99
2023-01-03T03:33:28.517Z,958.96
2023-01-03T03:34:28.503Z,959.09
2023-01-03T03:35:28.499Z,959.12
2023-01-03T03:36:28.499Z,959.14
2023-01-03T03:37:28.467Z,959.13
2023-01-03T03:38:28.480Z,959.12
2023-01-03T03:39:28.459Z,959.18
2023-01-03T03:40:28.434Z,959.19
2023-01-03T03:41:28.540Z,959.18
2023-01-03T03:42:28.431Z,959.20
2023-01-03T03:43:28.403Z,959.18
2023-01-03T03:44:28.389Z,959.21
2023-01-03T03:45:28.389Z,959.19
2023-01-03T03:46:28.424Z,959.22
2023-01-03T03:47:28.359Z,959.22
2023-01-03T03:48:28.386Z,959.25
2023-01-03T03:49:28.337Z,959.22
2023-01-03T03:50:28.321Z,959.24
2023-01-03T03:51:28.338Z,959.31
2023-01-03T03:52:28.305Z,959.26
2023-01-03T03:53:28.307Z,959.32
2023-01-03T03:54:28.286Z,959.31
2023-01-03T03:55:28.272Z,959.32
2023-01-03T03:56:28.303Z,959.31
2023-01-03T03:57:28.312Z,959.33
2023-01-03T03:58:28.229Z,959.33
2023-01-03T03:59:28.272Z,959.34
2023-01-03T04:00:28.223Z,959.32
2023-01-03T04:01:28.415Z,959.33
2023-01-03T04:02:28.438Z,959.37
2023-01-03T04:03:28.259Z,959.38
2023-01-03T04:04:28.168Z,959.41
2023-01-03T04:05:28.201Z,959.37
2023-01-03T04:06:28.157Z,959.39
2023-01-03T04:07:28.145Z,959.37
2023-01-03T04:08:28.120Z,959.39
2023-01-03T04:09:28.117Z,959.42
2023-01-03T04:10:31.375Z,959.42
2023-01-03T04:11:29.091Z,959.40
2023-01-03T04:12:28.101Z,959.41
2023-01-03T04:13:28.184Z,959.42
2023-01-03T04:14:28.054Z,959.54
2023-01-03T04:15:28.047Z,959.50
2023-01-03T04:16:28.103Z,959.53
2023-01-03T04:17:28.039Z,959.58
2023-01-03T04:18:28.028Z,959.55
2023-01-03T04:19:28.008Z,959.54
2023-01-03T04:20:27.992Z,959.61
2023-01-03T04:21:27.991Z,959.59
2023-01-03T04:22:27.992Z,959.54
2023-01-03T04:23:27.970Z,959.60
2023-01-03T04:24:27.951Z,959.69
2023-01-03T04:25:27.940Z,959.64
2023-01-03T04:26:27.924Z,959.66
2023-01-03T04:27:27.941Z,959.67
2023-01-03T04:28:27.896Z,959.68
2023-01-03T04:29:27.943Z,959.66
2023-01-03T04:30:27.883Z,959.67
2023-01-03T04:31:27.911Z,959.71
2023-01-03T04:32:27.887Z,959.75
2023-01-03T04:33:27.863Z,959.67
2023-01-03T04:34:27.828Z,959.71
2023-01-03T04:35:27.829Z,959.74
2023-01-03T04:36:27.825Z,959.78
2023-01-03T04:37:27.803Z,959.80
2023-01-03T04:38:27.813Z,959.77
2023-01-03T04:39:27.776Z,959.83
2023-01-03T04:40:27.761Z,959.83
2023-01-03T04:41:27.829Z,959.75
2023-01-03T04:42:27.794Z,959.76
2023-01-03T04:43:27.741Z,959.77
2023-01-03T04:44:27.722Z,959.81
2023-01-03T04:45:27.851Z,959.76
2023-01-03T04:46:27.779Z,959.78
2023-01-03T04:47:27.700Z,959.73
2023-01-03T04:48:27.695Z,959.76
2023-01-03T04:49:27.693Z,959.75
2023-01-03T04:50:27.663Z,959.75
2023-01-03T04:51:27.662Z,959.75
2023-01-03T04:52:27.632Z,959.67
2023-01-03T04:53:27.643Z,959.74
2023-01-03T04:54:27.620Z,959.76
2023-01-03T04:55:27.608Z,959.74
2023-01-03T04:56:27.605Z,959.74
2023-01-03T04:57:27.601Z,959.78
2023-01-03T04:58:27.564Z,959.78
2023-01-03T04:59:27.556Z,959.79
2023-01-03T05:00:27.537Z,959.76
2023-01-03T05:01:27.719Z,959.77
2023-01-03T05:02:27.629Z,959.78
2023-01-03T05:03:28.049Z,959.76
2023-01-03T05:04:27.572Z,959.76
2023-01-03T05:05:27.489Z,959.82
2023-01-03T05:06:27.466Z,959.80
2023-01-03T05:07:27.483Z,959.77
2023-01-03T05:08:27.473Z,959.77
2023-01-03T05:09:27.450Z,959.81
2023-01-03T05:10:27.423Z,959.78
2023-01-03T05:11:27.481Z,959.81
2023-01-03T05:12:27.425Z,959.77
2023-01-03T05:13:27.394Z,959.74
2023-01-03T05:14:27.381Z,959.77
2023-01-03T05:15:27.381Z,959.75
2023-01-03T05:16:27.446Z,959.71
2023-01-03T05:17:27.372Z,959.74
2023-01-03T05:18:27.342Z,959.73
2023-01-03T05:19:27.330Z,959.80
2023-01-03T05:20:27.319Z,959.80
2023-01-03T05:21:27.339Z,959.78
2023-01-03T05:22:27.306Z,959.83
2023-01-03T05:23:27.281Z,959.83
2023-01-03T05:24:27.269Z,959.87
2023-01-03T05:25:27.629Z,959.89
2023-01-03T05:26:27.268Z,959.85
2023-01-03T05:27:27.257Z,959.86
2023-01-03T05:28:27.224Z,959.85
2023-01-03T05:29:27.246Z,959.89
2023-01-03T05:30:27.208Z,959.91
2023-01-03T05:31:27.273Z,959.94
2023-01-03T05:32:27.199Z,959.91
2023-01-03T05:33:27.193Z,959.95
2023-01-03T05:34:27.175Z,959.95
2023-01-03T05:35:27.147Z,959.95
2023-01-03T05:36:27.133Z,959.94
2023-01-03T05:37:27.129Z,960.00
2023-01-03T05:38:27.111Z,960.03
2023-01-03T05:39:27.132Z,960.02
2023-01-03T05:40:27.091Z,960.02
2023-01-03T05:41:27.083Z,960.01
2023-01-03T05:42:27.064Z,960.00
2023-01-03T05:43:27.072Z,960.03
2023-01-03T05:44:27.063Z,960.03
2023-01-03T05:45:27.049Z,960.08
2023-01-03T05:46:27.056Z,960.05
2023-01-03T05:47:27.018Z,960.07
2023-01-03T05:48:27.021Z,960.07
2023-01-03T05:49:27.124Z,960.08
2023-01-03T05:50:26.990Z,960.06
2023-01-03T05:51:26.982Z,960.02
2023-01-03T05:52:26.961Z,960.01
2023-01-03T05:53:26.948Z,960.03
2023-01-03T05:54:26.947Z,960.01
2023-01-03T05:55:26.921Z,960.02
2023-01-03T05:56:26.910Z,960.02
2023-01-03T05:57:31.800Z,960.05
2023-01-03T05:58:27.885Z,960.03
2023-01-03T05:59:26.910Z,960.02
2023-01-03T06:00:26.869Z,960.06
2023-01-03T06:01:26.884Z,960.03
2023-01-03T06:02:26.892Z,960.10
2023-01-03T06:03:26.843Z,960.09
2023-01-03T06:04:26.889Z,960.10
2023-01-03T06:05:26.850Z,960.13
2023-01-03T06:06:26.803Z,960.17
2023-01-03T06:07:26.785Z,960.15
2023-01-03T06:08:26.801Z,960.13
2023-01-03T06:09:26.770Z,960.16
2023-01-03T06:10:26.775Z,960.15
2023-01-03T06:11:26.762Z,960.15
2023-01-03T06:12:26.744Z,960.19
2023-01-03T06:13:26.720Z,960.15
2023-01-03T06:14:26.709Z,960.19
2023-01-03T06:15:26.696Z,960.19
2023-01-03T06:16:26.741Z,960.18
2023-01-03T06:17:26.793Z,960.23
2023-01-03T06:18:26.681Z,960.26
2023-01-03T06:19:26.674Z,960.18
2023-01-03T06:20:26.643Z,960.24
2023-01-03T06:21:26.649Z,960.22
2023-01-03T06:22:26.636Z,960.30
2023-01-03T06:23:26.607Z,960.28
2023-01-03T06:24:26.600Z,960.29
2023-01-03T06:25:26.580Z,960.25
2023-01-03T06:26:26.570Z,960.24
2023-01-03T06:27:26.571Z,960.25
2023-01-03T06:28:26.556Z,960.25
2023-01-03T06:29:26.564Z,960.28
2023-01-03T06:30:26.647Z,960.22
2023-01-03T06:31:26.597Z,960.21
2023-01-03T06:32:26.524Z,960.27
2023-01-03T06:33:26.503Z,960.26
2023-01-03T06:34:26.594Z,960.25
2023-01-03T06:35:26.477Z,960.28
2023-01-03T06:36:26.461Z,960.32
2023-01-03T06:37:26.472Z,960.33
2023-01-03T06:38:26.437Z,960.31
2023-01-03T06:39:26.452Z,960.33
2023-01-03T06:40:30.422Z,960.31
2023-01-03T06:41:27.400Z,960.31
2023-01-03T06:42:26.394Z,960.28
2023-01-03T06:43:26.374Z,960.31
2023-01-03T06:44:26.367Z,960.30
2023-01-03T06:45:26.373Z,960.32
2023-01-03T06:46:26.425Z,960.36
2023-01-03T06:47:26.332Z,960.40
2023-01-03T06:48:26.328Z,960.38
2023-01-03T06:49:26.325Z,960.37
2023-01-03T06:50:26.301Z,960.38
2023-01-03T06:51:26.287Z,960.31
2023-01-03T06:52:26.298Z,960.36
2023-01-03T06:53:26.321Z,960.36
2023-01-03T06:54:26.267Z,960.37
2023-01-03T06:55:26.337Z,960.41
2023-01-03T06:56:26.238Z,960.38
2023-01-03T06:57:27.415Z,960.44
2023-01-03T06:58:26.212Z,960.47
2023-01-03T06:59:26.195Z,960.45
2023-01-03T07:00:26.211Z,960.49
2023-01-03T07:01:26.259Z,960.45
2023-01-03T07:02:26.351Z,960.45
2023-01-03T07:03:26.159Z,960.49
2023-01-03T07:04:26.249Z,960.47
2023-01-03T07:05:26.141Z,960.41
2023-01-03T07:06:26.127Z,960.42
2023-01-03T07:07:26.122Z,960.47
2023-01-03T07:08:26.120Z,960.42
2023-01-03T07:09:26.112Z,960.47
2023-01-03T07:10:26.086Z,960.48
2023-01-03T07:11:26.064Z,960.50
2023-01-03T07:12:26.078Z,960.47
2023-01-03T07:13:26.033Z,960.51
2023-01-03T07:14:26.031Z,960.53
2023-01-03T07:15:26.024Z,960.56
2023-01-03T07:16:26.067Z,960.55
2023-01-03T07:17:26.003Z,960.58
2023-01-03T07:18:26.008Z,960.55
2023-01-03T07:19:25.999Z,960.56
2023-01-03T07:20:25.960Z,960.56
2023-01-03T07:21:25.955Z,960.54
2023-01-03T07:22:25.939Z,960.58
2023-01-03T07:23:25.931Z,960.53
2023-01-03T07:24:25.936Z,960.59
2023-01-03T07:25:25.921Z,960.56
2023-01-03T07:26:25.924Z,960.63
2023-01-03T07:27:25.944Z,960.60
2023-01-03T07:28:25.887Z,960.65
2023-01-03T07:29:25.854Z,960.60
2023-01-03T07:30:25.874Z,960.66
2023-01-03T07:31:25.884Z,960.67
2023-01-03T07:32:25.842Z,960.73
2023-01-03T07:33:25.806Z,960.70
2023-01-03T07:34:25.839Z,960.76
2023-01-03T07:35:25.786Z,960.70
2023-01-03T07:36:25.797Z,960.76
2023-01-03T07:37:25.771Z,960.78
2023-01-03T07:38:25.756Z,960.78
2023-01-03T07:39:25.762Z,960.81
2023-01-03T07:40:25.778Z,960.78
2023-01-03T07:41:25.780Z,960.85
2023-01-03T07:42:25.712Z,960.81
2023-01-03T07:43:25.693Z,960.89
2023-01-03T07:44:25.697Z,960.89
2023-01-03T07:45:25.672Z,960.89
2023-01-03T07:46:25.779Z,960.86
2023-01-03T07:47:25.652Z,960.90
2023-01-03T07:48:25.644Z,960.93
2023-01-03T07:49:25.631Z,960.97
2023-01-03T07:50:25.623Z,960.97
2023-01-03T07:51:25.621Z,960.98
2023-01-03T07:52:25.604Z,961.03
2023-01-03T07:53:25.584Z,961.04
2023-01-03T07:54:25.574Z,961.04
2023-01-03T07:55:25.555Z,961.06
2023-01-03T07:56:25.611Z,961.04
2023-01-03T07:57:25.563Z,961.05
2023-01-03T07:58:25.538Z,961.08
2023-01-03T07:59:25.519Z,961.10
2023-01-03T08:00:25.504Z,961.13
2023-01-03T08:01:25.651Z,961.13
2023-01-03T08:02:25.692Z,961.14
2023-01-03T08:03:25.469Z,961.13
2023-01-03T08:04:25.507Z,961.08
2023-01-03T08:05:25.456Z,961.04
2023-01-03T08:06:25.509Z,961.08
2023-01-03T08:07:25.439Z,961.10
2023-01-03T08:08:25.452Z,961.14
2023-01-03T08:09:25.401Z,961.09
2023-01-03T08:10:25.389Z,961.10
2023-01-03T08:11:25.400Z,961.05
2023-01-03T08:12:25.378Z,961.09
2023-01-03T08:13:25.408Z,961.06
2023-01-03T08:14:27.006Z,961.17
2023-01-03T08:15:25.363Z,961.15
2023-01-03T08:16:25.387Z,961.18
2023-01-03T08:17:25.318Z,961.29
2023-01-03T08:18:25.306Z,961.26
2023-01-03T08:19:25.332Z,961.25
2023-01-03T08:20:25.283Z,961.25
2023-01-03T08:21:25.270Z,961.24
2023-01-03T08:22:25.284Z,961.23
2023-01-03T08:23:25.242Z,961.24
2023-01-03T08:24:25.283Z,961.25
2023-01-03T08:25:25.216Z,961.24
2023-01-03T08:26:25.211Z,961.30
2023-01-03T08:27:25.196Z,961.30
2023-01-03T08:28:25.189Z,961.30
2023-01-03T08:29:25.221Z,961.29
2023-01-03T08:30:25.246Z,961.33
2023-01-03T08:31:25.172Z,961.30
2023-01-03T08:32:25.162Z,961.29
2023-01-03T08:33:25.136Z,961.29
2023-01-03T08:34:29.382Z,961.32
2023-01-03T08:35:25.128Z,961.28
2023-01-03T08:36:25.118Z,961.31
2023-01-03T08:37:25.118Z,961.33
2023-01-03T08:38:25.081Z,961.38
2023-01-03T08:39:25.059Z,961.35
2023-01-03T08:40:25.117Z,961.34
2023-01-03T08:41:25.047Z,961.34
2023-01-03T08:42:25.054Z,961.32
2023-01-03T08:43:25.025Z,961.40
2023-01-03T08:44:25.007Z,961.37
2023-01-03T08:45:25.594Z,961.37
2023-01-03T08:46:25.044Z,961.37
2023-01-03T08:47:24.994Z,961.35
2023-01-03T08:48:24.965Z,961.33
2023-01-03T08:49:24.953Z,961.39
2023-01-03T08:50:24.992Z,961.35
2023-01-03T08:51:24.934Z,961.39
2023-01-03T08:52:26.950Z,961.39
2023-01-03T08:53:25.900Z,961.42
2023-01-03T08:54:24.896Z,961.41
2023-01-03T08:55:24.877Z,961.39
2023-01-03T08:56:24.896Z,961.42
2023-01-03T08:57:24.863Z,961.45
2023-01-03T08:58:24.894Z,961.43
2023-01-03T08:59:24.836Z,961.38
2023-01-03T09:00:24.845Z,961.43
2023-01-03T09:01:24.991Z,961.51
2023-01-03T09:02:25.065Z,961.46
2023-01-03T09:03:24.927Z,961.47
2023-01-03T09:04:24.784Z,961.50
2023-01-03T09:05:24.848Z,961.51
2023-01-03T09:06:24.779Z,961.56
2023-01-03T09:07:24.767Z,961.50
2023-01-03T09:08:24.751Z,961.56
2023-01-03T09:09:24.733Z,961.61
2023-01-03T09:10:24.717Z,961.60
2023-01-03T09:11:24.696Z,961.58
2023-01-03T09:12:24.688Z,961.60
2023-01-03T09:13:24.729Z,961.54
2023-01-03T09:14:24.671Z,961.50
2023-01-03T09:15:24.652Z,961.50
2023-01-03T09:16:24.744Z,961.54
2023-01-03T09:17:24.686Z,961.57
2023-01-03T09:18:24.631Z,961.59
2023-01-03T09:19:24.635Z,961.58
2023-01-03T09:20:24.603Z,961.59
2023-01-03T09:21:24.688Z,961.52
2023-01-03T09:22:24.623Z,961.58
2023-01-03T09:23:24.561Z,961.59
2023-01-03T09:24:24.607Z,961.57
2023-01-03T09:25:24.557Z,961.62
2023-01-03T09:26:24.566Z,961.60
2023-01-03T09:27:24.526Z,961.57
2023-01-03T09:28:24.507Z,961.55
2023-01-03T09:29:24.549Z,961.58
2023-01-03T09:30:24.492Z,961.61
2023-01-03T09:31:24.506Z,961.57
2023-01-03T09:32:24.470Z,961.60
2023-01-03T09:33:24.483Z,961.61
2023-01-03T09:34:24.461Z,961.61
2023-01-03T09:35:24.427Z,961.65
2023-01-03T09:36:24.419Z,961.65
2023-01-03T09:37:24.470Z,961.60
2023-01-03T09:38:24.405Z,961.66
2023-01-03T09:39:24.380Z,961.61
2023-01-03T09:40:24.379Z,961.61
2023-01-03T09:41:24.361Z,961.66
2023-01-03T09:42:24.416Z,961.63
2023-01-03T09:43:25.657Z,961.69
2023-01-03T09:44:24.350Z,961.66
2023-01-03T09:45:24.323Z,961.63
2023-01-03T09:46:24.362Z,961.66
2023-01-03T09:47:24.310Z,961.69
2023-01-03T09:48:24.295Z,961.67
2023-01-03T09:49:24.307Z,961.65
2023-01-03T09:50:38.899Z,961.65
2023-01-03T09:51:29.714Z,961.61
2023-01-03T09:52:25.233Z,961.57
2023-01-03T09:53:24.250Z,961.65
2023-01-03T09:54:24.234Z,961.61
2023-01-03T09:55:24.214Z,961.59
2023-01-03T09:56:24.199Z,961.62
2023-01-03T09:57:28.483Z,961.63
2023-01-03T09:58:24.199Z,961.60
2023-01-03T09:59:24.154Z,961.61
2023-01-03T10:00:24.147Z,961.59
2023-01-03T10:01:24.343Z,961.60
2023-01-03T10:02:24.318Z,961.59
2023-01-03T10:03:24.184Z,961.62
2023-01-03T10:04:24.123Z,961.62
2023-01-03T10:05:24.114Z,961.68
2023-01-03T10:06:24.152Z,961.66
2023-01-03T10:07:24.061Z,961.64
2023-01-03T10:08:24.055Z,961.61
2023-01-03T10:09:24.057Z,961.62
2023-01-03T10:10:24.091Z,961.66
2023-01-03T10:11:24.023Z,961.64
2023-01-03T10:12:24.026Z,961.60
2023-01-03T10:13:24.038Z,961.65
2023-01-03T10:14:24.050Z,961.66
2023-01-03T10:15:24.000Z,961.65
2023-01-03T10:16:24.058Z,961.58
2023-01-03T10:17:23.954Z,961.61
2023-01-03T10:18:23.978Z,961.57
2023-01-03T10:19:23.951Z,961.59
2023-01-03T10:20:28.124Z,961.64
2023-01-03T10:21:24.925Z,961.62
2023-01-03T10:22:23.895Z,961.63
2023-01-03T10:23:23.884Z,961.60
2023-01-03T10:24:23.896Z,961.64
2023-01-03T10:25:23.860Z,961.59
2023-01-03T10:26:29.173Z,961.56
2023-01-03T10:27:24.874Z,961.57
2023-01-03T10:28:23.827Z,961.58
2023-01-03T10:29:23.811Z,961.63
2023-01-03T10:30:23.829Z,961.57
2023-01-03T10:31:23.820Z,961.57
2023-01-03T10:32:23.806Z,961.57
2023-01-03T10:33:23.788Z,961.54
2023-01-03T10:34:23.785Z,961.55
2023-01-03T10:35:23.754Z,961.51
2023-01-03T10:36:23.737Z,961.54
2023-01-03T10:37:23.764Z,961.53
2023-01-03T10:38:23.737Z,961.56
2023-01-03T10:39:23.731Z,961.51
2023-01-03T10:40:23.694Z,961.49
2023-01-03T10:41:23.693Z,961.45
2023-01-03T10:42:23.674Z,961.51
2023-01-03T10:43:23.669Z,961.47
2023-01-03T10:44:23.697Z,961.46
2023-01-03T10:45:23.900Z,961.48
2023-01-03T10:46:23.691Z,961.44
2023-01-03T10:47:23.618Z,961.45
2023-01-03T10:48:23.595Z,961.44
2023-01-03T10:49:29.114Z,961.43
2023-01-03T10:50:24.592Z,961.38
2023-01-03T10:51:23.573Z,961.45
2023-01-03T10:52:23.569Z,961.44
2023-01-03T10:53:23.564Z,961.40
2023-01-03T10:54:23.551Z,961.43
2023-01-03T10:55:23.557Z,961.41
2023-01-03T10:56:23.506Z,961.45
2023-01-03T10:57:23.650Z,961.34
2023-01-03T10:58:23.481Z,961.42
2023-01-03T10:59:23.495Z,961.42
2023-01-03T11:00:23.461Z,961.41
2023-01-03T11:01:23.576Z,961.42
2023-01-03T11:02:23.704Z,961.35
2023-01-03T11:03:23.520Z,961.37
2023-01-03T11:04:23.413Z,961.37
2023-01-03T11:05:23.414Z,961.39
2023-01-03T11:06:23.396Z,961.37
2023-01-03T11:07:23.389Z,961.43
2023-01-03T11:08:23.387Z,961.42
2023-01-03T11:09:23.381Z,961.41
2023-01-03T11:10:23.358Z,961.43
2023-01-03T11:11:23.347Z,961.39
2023-01-03T11:12:23.367Z,961.43
2023-01-03T11:13:23.319Z,961.33
2023-01-03T11:14:23.306Z,961.32
2023-01-03T11:15:23.293Z,961.31
2023-01-03T11:16:23.345Z,961.25
2023-01-03T11:17:23.271Z,961.26
2023-01-03T11:18:23.295Z,961.28
2023-01-03T11:19:23.255Z,961.24
2023-01-03T11:20:23.240Z,961.22
2023-01-03T11:21:23.398Z,961.24
2023-01-03T11:22:23.217Z,961.24
2023-01-03T11:23:23.226Z,961.21
2023-01-03T11:24:23.197Z,961.24
2023-01-03T11:25:23.204Z,961.24
2023-01-03T11:26:23.170Z,961.21
2023-01-03T11:27:23.165Z,961.24
2023-01-03T11:28:23.160Z,961.24
2023-01-03T11:29:23.142Z,961.26
2023-01-03T11:30:23.119Z,961.24
2023-01-03T11:31:23.134Z,961.18
2023-01-03T11:32:23.192Z,961.22
2023-01-03T11:33:29.148Z,961.21
2023-01-03T11:34:24.107Z,961.18
2023-01-03T11:35:24.837Z,961.21
2023-01-03T11:36:23.054Z,961.15
2023-01-03T11:37:23.042Z,961.14
2023-01-03T11:38:23.045Z,961.13
2023-01-03T11:39:27.069Z,961.15
2023-01-03T11:40:23.020Z,961.13
2023-01-03T11:41:23.080Z,961.12
2023-01-03T11:42:22.993Z,961.14
2023-01-03T11:43:22.973Z,961.17
2023-01-03T11:44:22.988Z,961.21
2023-01-03T11:45:22.954Z,961.16
2023-01-03T11:46:23.031Z,961.13
2023-01-03T11:47:22.948Z,961.20
2023-01-03T11:48:22.920Z,961.17
2023-01-03T11:49:22.921Z,961.19
2023-01-03T11:50:22.924Z,961.21
2023-01-03T11:51:22.893Z,961.19
2023-01-03T11:52:22.893Z,961.24
2023-01-03T11:53:22.870Z,961.12
2023-01-03T11:54:22.900Z,961.12
2023-01-03T11:55:22.843Z,961.08
2023-01-03T11:56:22.831Z,961.08
2023-01-03T11:57:22.859Z,961.05
2023-01-03T11:58:22.805Z,961.07
2023-01-03T11:59:22.803Z,961.09
2023-01-03T12:00:22.826Z,961.12
2023-01-03T12:01:22.888Z,961.15
2023-01-03T12:02:22.951Z,961.13
2023-01-03T12:03:22.847Z,961.17
2023-01-03T12:04:22.842Z,961.13
2023-01-03T12:05:22.747Z,961.13
2023-01-03T12:06:28.570Z,961.16
2023-01-03T12:07:48.096Z,961.14
2023-01-03T12:08:23.713Z,961.11
2023-01-03T12:09:22.682Z,961.19
2023-01-03T12:10:22.672Z,961.20
2023-01-03T12:11:22.684Z,961.21
2023-01-03T12:12:22.663Z,961.18
2023-01-03T12:13:29.182Z,961.14
2023-01-03T12:14:23.651Z,961.18
2023-01-03T12:15:22.647Z,961.18
2023-01-03T12:16:22.629Z,961.23
2023-01-03T12:17:22.623Z,961.19
2023-01-03T12:18:22.579Z,961.21
2023-01-03T12:19:22.582Z,961.24
2023-01-03T12:20:22.563Z,961.24
2023-01-03T12:21:22.549Z,961.19
2023-01-03T12:22:22.554Z,961.20
2023-01-03T12:23:22.553Z,961.20
2023-01-03T12:24:22.522Z,961.18
2023-01-03T12:25:22.513Z,961.22
2023-01-03T12:26:22.516Z,961.21
2023-01-03T12:27:22.491Z,961.20
2023-01-03T12:28:22.499Z,961.21